Time;durP1;ratioP1;P1;durP2;ratioP2;P2;SDS_P1;SDS_P2;PMS_P1;PMS_P2;Temp;Humidity;BMP_temperature;BMP_pressure;BME280_temperature;BME280_humidity;BME280_pressure;Samples;Min_cycle;Max_cycle;Signal;HPM_P1;HPM_P2
2023/09/30 00:01:59;;;;;;;2.70;1.50;;;16.60;99.90;;;;;;5022265;28;20467;-84
2023/09/30 00:04:27;;;;;;;6.17;1.93;;;16.60;99.90;;;;;;5021162;28;20527;-86
2023/09/30 00:06:54;;;;;;;6.63;2.00;;;16.50;88.00;;;;;;5010558;28;20504;-87
2023/09/30 00:09:21;;;;;;;4.33;2.00;;;16.70;1.00;;;;;;5001739;28;20441;-86
2023/09/30 00:11:49;;;;;;;2.23;1.80;;;16.30;99.90;;;;;;5000668;28;20936;-86
2023/09/30 00:14:17;;;;;;;5.80;2.33;;;16.80;1.00;;;;;;5001933;28;20550;-86
2023/09/30 00:16:44;;;;;;;5.00;2.77;;;16.80;1.00;;;;;;5001057;28;20495;-86
2023/09/30 00:19:11;;;;;;;5.30;1.83;;;17.00;1.00;;;;;;5001787;28;20511;-86
2023/09/30 00:21:37;;;;;;;4.13;2.13;;;16.90;1.00;;;;;;5002896;28;20449;-86
2023/09/30 00:24:05;;;;;;;6.67;2.50;;;17.00;99.90;;;;;;5000984;28;20878;-86
2023/09/30 00:26:32;;;;;;;2.93;2.20;;;16.60;1.00;;;;;;5003920;28;20464;-86
2023/09/30 00:29:00;;;;;;;3.40;1.80;;;17.00;99.90;;;;;;5009432;28;20452;-87
2023/09/30 00:43:54;;;;;;;6.33;2.53;;;;;;;;;;4909993;29;20481;-88
2023/09/30 00:49:30;;;;;;;4.03;2.33;;;16.50;99.90;;;;;;5008747;28;20455;-88
2023/09/30 00:55:54;;;;;;;5.70;2.40;;;16.40;99.90;;;;;;4853584;29;20444;-89
2023/09/30 02:11:30;;;;;;;12.80;3.23;;;15.30;1.00;;;;;;4853099;29;20470;-88
2023/09/30 03:10:47;;;;;;;5.33;3.37;;;14.60;99.90;;;;;;4861706;29;20413;-88
2023/09/30 03:27:21;;;;;;;9.30;3.53;;;14.50;99.90;;;;;;4841486;29;20460;-88
2023/09/30 03:33:09;;;;;;;7.27;4.90;;;14.50;1.00;;;;;;3232700;26;20483;-87
2023/09/30 04:03:07;;;;;;;8.60;3.33;;;14.40;1.00;;;;;;4857022;29;20447;-88
2023/09/30 04:09:41;;;;;;;11.10;3.13;;;14.10;1.00;;;;;;4830772;29;20448;-88
2023/09/30 05:38:02;;;;;;;12.30;4.13;;;13.60;99.90;;;;;;4850376;29;20490;-88
2023/09/30 06:09:25;;;;;;;13.13;3.60;;;;;;;;;;4684702;30;20495;-89
2023/09/30 06:24:01;;;;;;;9.10;3.40;;;;;;;;;;4847881;29;20471;-88
2023/09/30 06:26:52;;;;;;;5.17;3.30;;;;;;;;;;4865028;29;20454;-88
2023/09/30 07:01:26;;;;;;;10.87;3.40;;;14.70;99.90;;;;;;4945961;29;20517;-88
2023/09/30 07:04:35;;;;;;;9.40;4.00;;;14.80;99.90;;;;;;4879450;29;20466;-86
2023/09/30 07:10:53;;;;;;;8.90;3.93;;;14.80;99.90;;;;;;4877341;29;20462;-87
2023/09/30 07:13:40;;;;;;;8.40;3.30;;;;;;;;;;4796462;29;20462;-87
2023/09/30 07:16:26;;;;;;;10.67;3.90;;;15.00;1.00;;;;;;4868959;29;20447;-88
2023/09/30 07:23:13;;;;;;;15.10;4.43;;;14.90;99.90;;;;;;4838511;29;20473;-87
2023/09/30 07:26:08;;;;;;;11.83;3.90;;;15.10;99.90;;;;;;4927367;29;20861;-88
2023/09/30 07:34:40;;;;;;;8.90;3.33;;;;;;;;;;4930457;29;20443;-88
2023/09/30 07:49:13;;;;;;;12.27;3.03;;;15.40;1.00;;;;;;4992989;28;20473;-88
2023/09/30 07:55:56;;;;;;;7.27;2.60;;;15.40;1.00;;;;;;4813443;29;20463;-88
2023/09/30 08:05:36;;;;;;;8.70;4.10;;;;;;;;;;4790888;30;20468;-88
2023/09/30 09:46:15;;;;;;;5.23;2.67;;;17.30;1.00;;;;;;4995006;28;20457;-88
2023/09/30 09:55:26;;;;;;;12.33;3.23;;;17.40;1.00;;;;;;4986307;23;20500;-87
2023/09/30 09:57:54;;;;;;;11.37;2.80;;;17.40;1.00;;;;;;5007422;28;20461;-87
2023/09/30 10:00:24;;;;;;;11.13;3.23;;;17.20;99.90;;;;;;5005575;28;20461;-87
2023/09/30 10:02:52;;;;;;;8.03;3.20;;;17.40;1.00;;;;;;5009569;28;20429;-87
2023/09/30 10:05:21;;;;;;;5.93;2.77;;;17.40;1.00;;;;;;5011359;28;20475;-87
2023/09/30 10:07:53;;;;;;;12.70;3.10;;;17.60;1.00;;;;;;5010202;28;20508;-88
2023/09/30 10:10:23;;;;;;;8.03;2.50;;;17.70;1.00;;;;;;5014457;28;20415;-87
2023/09/30 10:12:51;;;;;;;10.93;3.20;;;17.70;1.00;;;;;;5002621;28;20449;-88
2023/09/30 10:15:42;;;;;;;9.23;2.73;;;17.90;1.00;;;;;;5000943;28;20567;-88
2023/09/30 10:18:11;;;;;;;7.10;2.50;;;17.90;1.00;;;;;;4999308;28;20541;-87
2023/09/30 10:20:41;;;;;;;8.80;2.70;;;18.00;1.00;;;;;;5000237;28;20460;-88
2023/09/30 10:23:22;;;;;;;9.70;3.70;;;18.00;1.00;;;;;;5008503;28;20437;-87
2023/09/30 10:25:49;;;;;;;6.97;2.53;;;18.10;99.90;;;;;;5018371;28;20442;-87
2023/09/30 10:28:38;;;;;;;5.67;2.10;;;18.30;32.40;;;;;;5018788;28;20522;-87
2023/09/30 10:31:13;;;;;;;4.83;2.27;;;18.20;1.00;;;;;;5018971;28;20448;-86
2023/09/30 10:34:13;;;;;;;5.97;2.17;;;18.40;5.40;;;;;;5017750;28;20476;-87
2023/09/30 10:36:41;;;;;;;7.43;2.63;;;18.40;1.00;;;;;;5016439;28;20430;-87
2023/09/30 10:39:13;;;;;;;9.83;2.47;;;17.70;1.00;;;;;;5015385;28;20489;-87
2023/09/30 10:42:01;;;;;;;7.53;2.83;;;18.60;1.00;;;;;;5003933;28;20466;-87
2023/09/30 10:44:37;;;;;;;7.17;2.60;;;18.50;1.00;;;;;;4986993;28;20569;-87
2023/09/30 10:47:35;;;;;;;10.57;2.70;;;18.50;1.00;;;;;;5000797;28;20843;-87
2023/09/30 10:50:04;;;;;;;11.77;3.57;;;18.50;1.00;;;;;;5004013;28;20444;-87
2023/09/30 10:52:32;;;;;;;10.40;3.00;;;18.50;1.00;;;;;;5001123;28;20457;-87
2023/09/30 10:55:04;;;;;;;5.30;3.17;;;18.30;1.00;;;;;;4998747;28;20532;-87
2023/09/30 10:57:31;;;;;;;5.13;2.73;;;18.60;1.00;;;;;;5000518;28;20427;-89
2023/09/30 11:00:16;;;;;;;6.80;4.17;;;18.50;1.00;;;;;;5000391;28;20526;-87
2023/09/30 11:02:50;;;;;;;5.80;2.57;;;18.50;1.00;;;;;;5002506;28;20447;-87
2023/09/30 11:05:18;;;;;;;9.07;2.80;;;18.30;1.00;;;;;;5002045;28;20602;-87
2023/09/30 11:07:48;;;;;;;5.13;2.13;;;18.30;1.00;;;;;;5000724;28;20971;-88
2023/09/30 11:10:17;;;;;;;8.67;2.10;;;18.30;1.00;;;;;;5005765;28;20460;-87
2023/09/30 11:12:55;;;;;;;5.60;1.93;;;18.10;1.00;;;;;;4982094;28;20450;-87
2023/09/30 11:15:24;;;;;;;6.00;2.57;;;18.10;1.00;;;;;;4997349;28;20514;-87
2023/09/30 11:17:51;;;;;;;8.77;2.30;;;18.10;1.00;;;;;;4998484;28;20447;-87
2023/09/30 11:20:18;;;;;;;6.93;1.93;;;18.10;1.00;;;;;;5012071;28;20490;-86
2023/09/30 11:22:46;;;;;;;10.07;3.10;;;18.30;1.00;;;;;;5018596;28;20433;-87
2023/09/30 11:25:19;;;;;;;7.00;3.03;;;18.30;1.00;;;;;;5021179;28;20456;-87
2023/09/30 11:27:46;;;;;;;7.73;2.50;;;18.40;1.00;;;;;;5010715;28;20419;-87
2023/09/30 11:30:14;;;;;;;7.97;2.33;;;18.30;1.00;;;;;;5006626;28;20464;-86
2023/09/30 11:32:43;;;;;;;3.30;2.00;;;18.30;1.00;;;;;;5016979;28;20428;-86
2023/09/30 11:35:12;;;;;;;5.50;2.57;;;18.30;1.00;;;;;;5022300;28;20464;-86
2023/09/30 11:37:44;;;;;;;5.77;2.57;;;18.40;1.00;;;;;;5020095;28;20451;-88
2023/09/30 11:40:13;;;;;;;4.90;2.23;;;18.40;1.00;;;;;;5010156;28;20521;-87
2023/09/30 11:42:40;;;;;;;6.43;3.53;;;18.40;1.00;;;;;;5004440;28;20460;-88
2023/09/30 11:45:22;;;;;;;5.73;3.10;;;18.60;1.00;;;;;;5001602;28;20466;-87
2023/09/30 11:47:50;;;;;;;6.73;2.73;;;18.60;1.00;;;;;;5006864;28;20410;-86
2023/09/30 11:50:17;;;;;;;4.33;2.43;;;18.50;1.00;;;;;;5012932;28;20446;-88
2023/09/30 11:52:47;;;;;;;4.73;2.40;;;18.40;1.00;;;;;;5002854;28;20458;-88
2023/09/30 11:55:16;;;;;;;6.80;2.30;;;18.20;93.60;;;;;;5001803;28;20474;-87
2023/09/30 11:57:43;;;;;;;6.40;2.43;;;18.50;1.00;;;;;;5001877;28;20501;-88
2023/09/30 12:00:18;;;;;;;12.00;2.73;;;18.30;89.70;;;;;;5011446;28;20479;-87
2023/09/30 12:02:45;;;;;;;3.10;1.97;;;18.50;1.00;;;;;;5001350;28;20489;-86
2023/09/30 12:05:13;;;;;;;4.70;2.20;;;18.60;1.00;;;;;;5017194;28;20478;-86
2023/09/30 12:07:41;;;;;;;5.57;1.90;;;19.00;97.80;;;;;;5015185;28;20461;-86
2023/09/30 12:10:09;;;;;;;6.70;2.43;;;18.80;1.00;;;;;;5021051;28;20448;-86
2023/09/30 12:12:36;;;;;;;4.70;2.77;;;18.80;1.00;;;;;;5018686;28;20425;-86
2023/09/30 12:15:03;;;;;;;10.50;2.63;;;19.00;1.00;;;;;;5019247;28;20512;-87
2023/09/30 12:17:30;;;;;;;7.03;2.80;;;;;;;;;;5020112;28;20556;-87
2023/09/30 12:19:57;;;;;;;5.77;2.70;;;18.90;1.00;;;;;;5021063;28;20500;-86
2023/09/30 12:22:25;;;;;;;5.10;2.10;;;19.00;1.00;;;;;;5019694;28;20457;-85
2023/09/30 12:24:53;;;;;;;8.13;2.20;;;19.10;1.00;;;;;;5020694;28;20475;-86
2023/09/30 12:27:19;;;;;;;9.67;2.37;;;19.10;1.00;;;;;;5020528;28;20445;-86
2023/09/30 12:29:48;;;;;;;3.33;1.90;;;19.00;1.00;;;;;;5002113;28;20454;-87
2023/09/30 12:32:15;;;;;;;3.10;2.20;;;19.10;1.00;;;;;;5003763;28;20458;-86
2023/09/30 12:34:42;;;;;;;7.40;1.93;;;19.10;1.00;;;;;;5002602;28;20466;-85
2023/09/30 12:37:09;;;;;;;5.00;1.80;;;19.10;1.00;;;;;;5002496;28;20455;-87
2023/09/30 12:39:37;;;;;;;4.60;1.80;;;19.10;1.00;;;;;;4999932;28;20561;-86
2023/09/30 12:42:08;;;;;;;8.53;2.30;;;19.20;1.00;;;;;;5005175;28;20430;-86
2023/09/30 12:44:35;;;;;;;5.03;2.30;;;19.20;1.00;;;;;;5009727;28;20469;-87
2023/09/30 12:47:03;;;;;;;3.83;2.10;;;19.20;1.00;;;;;;5001856;28;20510;-87
2023/09/30 12:49:30;;;;;;;3.37;1.77;;;19.20;1.00;;;;;;5006337;28;20457;-86
2023/09/30 12:51:58;;;;;;;4.87;2.10;;;19.30;1.00;;;;;;4999934;28;20448;-87
2023/09/30 12:54:25;;;;;;;4.70;1.80;;;19.40;1.00;;;;;;4992090;28;20515;-87
2023/09/30 12:57:00;;;;;;;4.70;2.13;;;19.50;1.00;;;;;;5001131;28;20538;-87
2023/09/30 12:59:34;;;;;;;4.70;1.90;;;19.60;1.00;;;;;;5002776;28;20483;-90
2023/09/30 13:02:00;;;;;;;2.90;2.10;;;20.70;2.70;;;;;;4999404;28;20452;-86
2023/09/30 13:04:27;;;;;;;3.03;1.63;;;19.80;1.00;;;;;;4999255;28;20468;-87
2023/09/30 13:06:54;;;;;;;5.63;2.03;;;19.90;1.00;;;;;;4999094;28;20460;-87
2023/09/30 13:09:21;;;;;;;6.93;2.20;;;19.90;1.00;;;;;;5000019;28;20459;-86
2023/09/30 13:11:48;;;;;;;4.13;2.17;;;19.90;1.00;;;;;;5000170;28;20515;-86
2023/09/30 13:14:17;;;;;;;7.90;2.03;;;19.80;1.00;;;;;;4999032;28;20987;-87
2023/09/30 13:16:45;;;;;;;8.40;1.90;;;19.90;1.00;;;;;;5006037;28;20476;-88
2023/09/30 13:19:12;;;;;;;3.77;1.70;;;19.90;1.00;;;;;;5009865;28;20514;-86
2023/09/30 13:21:41;;;;;;;9.60;2.10;;;19.80;1.00;;;;;;5018128;28;20512;-87
2023/09/30 13:24:10;;;;;;;4.80;1.90;;;19.90;1.00;;;;;;5018378;28;20467;-87
2023/09/30 13:26:37;;;;;;;2.57;1.70;;;20.00;1.00;;;;;;5000031;28;20511;-87
2023/09/30 13:29:05;;;;;;;8.77;2.03;;;;;;;;;;5001015;28;20949;-87
2023/09/30 13:31:33;;;;;;;5.57;3.37;;;19.70;99.90;;;;;;5003000;28;20449;-87
2023/09/30 13:34:03;;;;;;;18.57;2.70;;;19.70;22.00;;;;;;4999334;28;20464;-87
2023/09/30 13:36:30;;;;;;;2.80;1.27;;;19.20;1.00;;;;;;5001929;28;20455;-87
2023/09/30 13:38:57;;;;;;;4.70;1.57;;;19.70;99.90;;;;;;4999193;28;20550;-86
2023/09/30 13:41:24;;;;;;;4.77;1.67;;;;;;;;;;5000112;28;20453;-88
2023/09/30 13:43:51;;;;;;;5.90;2.03;;;19.60;99.90;;;;;;4998486;28;20546;-86
2023/09/30 13:46:18;;;;;;;4.80;1.97;;;;;;;;;;4999148;28;20448;-88
2023/09/30 13:48:47;;;;;;;3.23;1.60;;;19.50;99.90;;;;;;5000925;28;20841;-88
2023/09/30 13:51:14;;;;;;;3.07;1.50;;;19.40;99.90;;;;;;5012694;28;20519;-87
2023/09/30 13:53:42;;;;;;;2.23;1.60;;;19.40;99.90;;;;;;5013667;28;20480;-86
2023/09/30 13:56:10;;;;;;;3.80;2.00;;;19.60;1.00;;;;;;5007669;28;20443;-87
2023/09/30 13:58:37;;;;;;;5.73;2.37;;;19.30;99.90;;;;;;5004589;28;20455;-87
2023/09/30 14:01:04;;;;;;;3.40;1.83;;;19.10;99.90;;;;;;5007909;28;20478;-87
2023/09/30 14:03:30;;;;;;;2.87;1.80;;;19.30;1.00;;;;;;5006324;28;20481;-86
2023/09/30 14:05:59;;;;;;;6.13;1.80;;;;;;;;;;5009968;28;20828;-87
2023/09/30 14:08:26;;;;;;;12.70;2.10;;;19.10;99.90;;;;;;5003897;28;20475;-87
2023/09/30 14:10:53;;;;;;;5.70;1.90;;;19.10;99.90;;;;;;5005429;28;20503;-87
2023/09/30 14:13:20;;;;;;;3.33;1.83;;;18.90;1.00;;;;;;5010161;28;20509;-87
2023/09/30 14:15:47;;;;;;;4.70;2.10;;;19.10;99.90;;;;;;4999151;28;20446;-86
2023/09/30 14:18:14;;;;;;;3.30;1.37;;;19.10;99.90;;;;;;4998676;28;20462;-87
2023/09/30 14:20:41;;;;;;;9.80;2.40;;;;;;;;;;4999279;28;20485;-87
2023/09/30 14:23:10;;;;;;;4.73;2.37;;;19.10;99.90;;;;;;4998781;28;20472;-87
2023/09/30 14:25:36;;;;;;;2.70;2.03;;;19.00;99.90;;;;;;4998092;28;20494;-88
2023/09/30 14:28:04;;;;;;;3.97;1.33;;;19.00;99.90;;;;;;4999191;28;20455;-87
2023/09/30 14:30:40;;;;;;;4.83;2.03;;;19.20;1.00;;;;;;5003254;28;20458;-87
2023/09/30 14:33:07;;;;;;;9.20;2.00;;;19.00;99.90;;;;;;5003614;28;20458;-87
2023/09/30 14:35:35;;;;;;;1.93;1.63;;;19.00;99.90;;;;;;5006173;28;20499;-87
2023/09/30 14:38:04;;;;;;;4.53;2.50;;;19.00;99.90;;;;;;5005134;28;20793;-87
2023/09/30 14:40:39;;;;;;;3.03;2.10;;;19.00;99.90;;;;;;5005338;28;20498;-87
2023/09/30 14:43:06;;;;;;;4.93;1.73;;;19.00;99.90;;;;;;5002028;28;20489;-87
2023/09/30 14:45:34;;;;;;;5.50;1.87;;;19.00;99.90;;;;;;4999832;28;20485;-87
2023/09/30 14:48:01;;;;;;;5.73;1.80;;;18.60;1.00;;;;;;4999100;28;20486;-88
2023/09/30 14:50:28;;;;;;;3.37;1.80;;;;;;;;;;4997987;28;20487;-87
2023/09/30 14:52:55;;;;;;;3.30;2.03;;;19.00;99.90;;;;;;4997938;28;20484;-87
2023/09/30 14:55:22;;;;;;;4.03;1.80;;;19.00;99.90;;;;;;4996116;28;20486;-87
2023/09/30 14:57:50;;;;;;;7.10;2.20;;;19.00;99.90;;;;;;4995871;28;20467;-88
2023/09/30 15:00:17;;;;;;;8.30;3.53;;;19.00;99.90;;;;;;4996173;28;21040;-88
2023/09/30 15:02:44;;;;;;;6.57;2.83;;;19.20;1.00;;;;;;4996583;28;20458;-87
2023/09/30 15:05:11;;;;;;;4.17;1.90;;;19.00;99.90;;;;;;4997308;28;20558;-88
2023/09/30 15:07:38;;;;;;;2.77;1.93;;;18.90;1.00;;;;;;4997179;28;20954;-88
2023/09/30 15:10:06;;;;;;;8.00;4.30;;;18.90;99.90;;;;;;5002442;28;20450;-89
2023/09/30 15:12:33;;;;;;;8.90;2.90;;;;;;;;;;5006587;28;20446;-88
2023/09/30 15:15:01;;;;;;;2.20;2.00;;;18.80;99.90;;;;;;5014904;28;20466;-88
2023/09/30 15:17:29;;;;;;;6.20;1.83;;;19.20;1.00;;;;;;5015330;28;20432;-87
2023/09/30 15:19:56;;;;;;;4.63;2.30;;;18.70;1.00;;;;;;5018126;28;20517;-88
2023/09/30 15:22:23;;;;;;;10.03;2.73;;;18.80;99.90;;;;;;5015795;28;20856;-89
2023/09/30 15:24:50;;;;;;;4.60;2.20;;;18.80;99.90;;;;;;4999931;28;20475;-88
2023/09/30 15:27:18;;;;;;;6.50;2.93;;;18.70;99.90;;;;;;4999417;28;20481;-89
2023/09/30 15:29:45;;;;;;;26.13;15.00;;;18.70;99.90;;;;;;4998351;28;20522;-88
2023/09/30 15:32:13;;;;;;;5.00;2.97;;;18.60;99.90;;;;;;4996651;28;20544;-88
2023/09/30 15:34:40;;;;;;;5.23;2.43;;;18.70;99.90;;;;;;4998574;28;20490;-89
2023/09/30 15:37:07;;;;;;;4.77;2.73;;;18.60;99.90;;;;;;4997232;28;20462;-89
2023/09/30 15:39:39;;;;;;;5.30;2.33;;;18.80;1.00;;;;;;4996759;28;20894;-88
2023/09/30 15:42:06;;;;;;;4.03;2.50;;;18.50;99.90;;;;;;5000547;28;20431;-89
2023/09/30 15:44:33;;;;;;;4.77;2.03;;;18.60;99.90;;;;;;4999271;28;20509;-89
2023/09/30 15:47:00;;;;;;;5.57;1.93;;;18.50;99.90;;;;;;4997910;28;20466;-89
2023/09/30 15:49:28;;;;;;;3.60;1.77;;;18.50;99.90;;;;;;4998736;28;20464;-89
2023/09/30 15:51:55;;;;;;;8.70;2.00;;;18.40;99.90;;;;;;4999236;28;20446;-90
2023/09/30 18:32:43;;;;;;;6.73;4.43;;;16.10;1.00;;;;;;4781860;23;20556;-87
2023/09/30 18:35:18;;;;;;;6.03;5.40;;;;;;;;;;4981046;28;20528;-88
2023/09/30 18:37:57;;;;;;;12.10;5.80;;;;;;;;;;4981594;28;20441;-88
2023/09/30 18:40:24;;;;;;;7.00;5.50;;;;;;;;;;4999119;28;20480;-88
2023/09/30 18:42:55;;;;;;;7.30;5.27;;;15.90;99.90;;;;;;5010699;28;20443;-88
2023/09/30 18:45:22;;;;;;;8.50;6.00;;;15.70;8.20;;;;;;5024550;23;20496;-88
2023/09/30 18:47:53;;;;;;;6.07;4.80;;;15.90;1.00;;;;;;4997856;28;20503;-89
2023/09/30 18:50:20;;;;;;;12.83;6.20;;;15.80;1.00;;;;;;5005753;28;20420;-88
2023/09/30 18:52:47;;;;;;;11.70;5.30;;;15.80;1.00;;;;;;5015825;28;20527;-89
2023/09/30 18:55:14;;;;;;;10.20;5.73;;;;;;;;;;5018668;28;20519;-88
2023/09/30 18:57:41;;;;;;;9.73;5.90;;;15.60;54.90;;;;;;5018654;28;20453;-87
2023/09/30 19:00:12;;;;;;;16.33;6.33;;;15.90;69.30;;;;;;5017628;28;20444;-87
2023/09/30 19:02:39;;;;;;;13.20;5.60;;;;;;;;;;5003248;28;20476;-88
2023/09/30 19:05:08;;;;;;;8.90;5.07;;;;;;;;;;5000194;28;20835;-88
2023/09/30 19:07:35;;;;;;;13.60;4.90;;;15.60;1.00;;;;;;4999521;28;20820;-88
2023/09/30 19:10:02;;;;;;;8.47;4.10;;;15.60;1.00;;;;;;5000392;28;20507;-88
2023/09/30 19:12:29;;;;;;;7.37;3.77;;;15.70;1.00;;;;;;4997099;28;20452;-88
2023/09/30 19:14:56;;;;;;;5.50;3.70;;;15.60;1.00;;;;;;5004461;28;20536;-87
2023/09/30 19:17:23;;;;;;;7.20;4.40;;;;;;;;;;5007628;28;20455;-88
2023/09/30 19:19:50;;;;;;;8.80;5.30;;;15.60;1.00;;;;;;5007319;28;20870;-88
2023/09/30 19:22:19;;;;;;;10.17;4.00;;;15.60;1.00;;;;;;5006509;28;20860;-88
2023/09/30 19:24:47;;;;;;;6.53;3.53;;;15.40;99.90;;;;;;5003686;28;20455;-88
2023/09/30 19:27:14;;;;;;;9.67;3.97;;;15.30;99.90;;;;;;5000882;28;20443;-88
2023/09/30 19:29:41;;;;;;;7.30;4.23;;;15.60;43.30;;;;;;5007282;28;20452;-88
2023/09/30 19:32:09;;;;;;;10.13;4.17;;;15.40;1.00;;;;;;5009906;28;20441;-88
2023/09/30 19:34:35;;;;;;;5.67;4.43;;;15.20;27.50;;;;;;5004563;28;20452;-88
2023/09/30 19:37:02;;;;;;;8.70;5.93;;;15.30;1.00;;;;;;4998444;28;20476;-88
2023/09/30 19:39:30;;;;;;;9.83;5.80;;;15.30;1.00;;;;;;4998528;28;20479;-88
2023/09/30 19:41:58;;;;;;;11.27;6.20;;;15.50;99.90;;;;;;4997521;28;20859;-88
2023/09/30 19:44:25;;;;;;;7.40;4.30;;;15.30;1.00;;;;;;4999054;28;20456;-88
2023/09/30 19:46:52;;;;;;;9.10;3.93;;;15.40;1.00;;;;;;4999669;28;20472;-88
2023/09/30 19:49:19;;;;;;;7.00;4.47;;;15.30;1.00;;;;;;4999991;28;20456;-88
2023/09/30 19:51:47;;;;;;;8.30;4.60;;;15.30;1.00;;;;;;5000060;28;20468;-88
2023/09/30 19:54:14;;;;;;;15.00;9.43;;;15.30;1.00;;;;;;5001563;28;20491;-88
2023/09/30 19:56:43;;;;;;;15.73;6.80;;;15.30;1.00;;;;;;5012510;28;20475;-88
2023/09/30 19:59:09;;;;;;;6.27;4.10;;;15.50;99.90;;;;;;5014536;28;20483;-87
2023/09/30 20:01:38;;;;;;;9.60;6.10;;;15.20;1.00;;;;;;5016047;28;20464;-87
2023/09/30 20:04:05;;;;;;;8.00;5.90;;;15.20;1.00;;;;;;5010539;28;20456;-88
2023/09/30 20:06:33;;;;;;;10.50;5.33;;;;;;;;;;5004162;28;20843;-88
2023/09/30 20:09:00;;;;;;;9.90;6.13;;;15.00;99.90;;;;;;5003166;28;20460;-88
2023/09/30 20:11:28;;;;;;;11.27;6.03;;;14.90;1.00;;;;;;5001325;28;20531;-88
2023/09/30 20:14:02;;;;;;;5.50;4.20;;;15.00;1.00;;;;;;5003531;28;20439;-90
2023/09/30 20:16:29;;;;;;;8.40;5.17;;;15.10;99.90;;;;;;5002167;28;20476;-88
2023/09/30 20:19:00;;;;;;;13.53;5.07;;;15.60;99.90;;;;;;5004730;28;20456;-88
2023/09/30 20:21:30;;;;;;;9.10;5.20;;;15.00;1.00;;;;;;5011767;28;20487;-88
2023/09/30 20:24:02;;;;;;;8.83;5.40;;;15.80;1.00;;;;;;5001435;28;20933;-87
2023/09/30 20:26:33;;;;;;;7.80;5.30;;;15.10;99.90;;;;;;4999772;28;20503;-89
2023/09/30 20:29:04;;;;;;;11.43;5.47;;;15.00;1.00;;;;;;5002062;28;20456;-88
2023/09/30 20:31:34;;;;;;;6.90;4.30;;;15.10;1.00;;;;;;5003881;28;20453;-87
2023/09/30 20:34:02;;;;;;;8.00;4.53;;;15.00;1.00;;;;;;5007767;28;20436;-87
2023/09/30 20:36:32;;;;;;;6.40;4.67;;;14.30;1.00;;;;;;5013655;28;20552;-89
2023/09/30 20:38:59;;;;;;;6.40;4.53;;;14.90;1.00;;;;;;5007933;28;20452;-89
2023/09/30 20:41:26;;;;;;;7.53;4.83;;;14.80;1.00;;;;;;5006707;28;20483;-87
2023/09/30 20:43:54;;;;;;;12.33;4.90;;;14.50;1.00;;;;;;5008977;28;20539;-87
2023/09/30 20:46:24;;;;;;;7.53;5.13;;;14.80;1.00;;;;;;5006436;28;20511;-87
2023/09/30 20:48:51;;;;;;;18.63;5.17;;;14.80;1.00;;;;;;5004253;28;20446;-86
2023/09/30 20:51:18;;;;;;;5.50;4.67;;;14.90;1.00;;;;;;5003356;28;20565;-87
2023/09/30 20:53:47;;;;;;;6.50;4.20;;;15.20;1.00;;;;;;5003600;28;20511;-89
2023/09/30 20:56:25;;;;;;;10.90;6.57;;;;;;;;;;5002689;28;20492;-87
2023/09/30 21:01:48;;;;;;;9.97;5.03;;;;;;;;;;5009340;28;20495;-88
2023/09/30 21:04:20;;;;;;;4.90;4.30;;;;;;;;;;5020206;28;20431;-87
2023/09/30 21:06:47;;;;;;;8.97;4.70;;;;;;;;;;5018211;28;20470;-87
2023/09/30 21:09:20;;;;;;;7.43;5.13;;;;;;;;;;5014467;28;20447;-87
2023/09/30 21:11:48;;;;;;;10.40;4.67;;;;;;;;;;5013879;28;20452;-86
2023/09/30 21:14:21;;;;;;;7.57;5.33;;;;;;;;;;5016918;28;20451;-87
2023/09/30 21:16:54;;;;;;;8.43;6.50;;;;;;;;;;5013933;28;20476;-86
2023/09/30 21:19:28;;;;;;;8.37;5.97;;;;;;;;;;5006437;28;20445;-88
2023/09/30 21:22:00;;;;;;;8.00;5.47;;;;;;;;;;5015401;28;20519;-87
2023/09/30 21:24:48;;;;;;;8.30;5.47;;;;;;;;;;5002668;28;20456;-88
2023/09/30 21:30:29;;;;;;;8.00;6.00;;;;;;;;;;4961868;28;20496;-86
2023/09/30 21:47:44;;;;;;;9.80;5.27;;;;;;;;;;4991681;28;20428;-85
2023/09/30 21:50:45;;;;;;;10.50;5.67;;;14.70;10.30;;;;;;4996920;28;20448;-86
2023/09/30 21:56:41;;;;;;;8.30;6.47;;;;;;;;;;4992885;28;20460;-85
2023/09/30 21:59:21;;;;;;;10.53;5.70;;;;;;;;;;4998769;28;20433;-86
2023/09/30 22:02:07;;;;;;;8.20;6.03;;;;;;;;;;4997996;28;20484;-86
2023/09/30 22:04:37;;;;;;;6.20;5.30;;;;;;;;;;4997994;28;21012;-86
2023/09/30 22:07:25;;;;;;;9.50;6.00;;;;;;;;;;4998147;28;20452;-86
2023/09/30 22:09:58;;;;;;;8.13;5.60;;;;;;;;;;5000961;28;20444;-87
2023/09/30 22:12:31;;;;;;;7.67;5.47;;;;;;;;;;5004593;28;20529;-85
2023/09/30 22:15:13;;;;;;;9.30;5.43;;;;;;;;;;5007775;28;20503;-86
2023/09/30 22:20:55;;;;;;;12.60;6.90;;;;;;;;;;4997465;28;20443;-86
2023/09/30 22:24:07;;;;;;;;;;;;;;;;;;;;;
2023/09/30 22:26:47;;;;;;;17.40;10.60;;;;;;;;;;4993747;28;20537;-86
2023/09/30 22:29:27;;;;;;;13.17;9.20;;;;;;;;;;5000205;28;20461;-87
2023/09/30 22:32:02;;;;;;;12.30;7.30;;;;;;;;;;5001905;28;20452;-86
2023/09/30 22:34:35;;;;;;;9.70;5.87;;;;;;;;;;4999346;28;20452;-86
2023/09/30 22:37:19;;;;;;;14.37;8.00;;;;;;;;;;5001345;28;20452;-86
2023/09/30 22:40:31;;;;;;;7.30;5.80;;;14.60;1.00;;;;;;5000986;28;20519;-86
2023/09/30 22:45:59;;;;;;;5.87;5.23;;;;;;;;;;4997694;28;20949;-87
2023/09/30 22:48:59;;;;;;;7.10;5.67;;;14.60;7.10;;;;;;5017966;28;20407;-87
2023/09/30 22:57:59;;;;;;;5.77;5.23;;;14.60;2.50;;;;;;5010379;28;20524;-86
2023/09/30 23:00:52;;;;;;;9.17;5.60;;;14.60;7.50;;;;;;5003160;28;20433;-86
2023/09/30 23:03:28;;;;;;;12.57;5.20;;;;;;;;;;5014984;28;20471;-86
2023/09/30 23:06:05;;;;;;;6.93;5.50;;;;;;;;;;5018208;28;20476;-87
2023/09/30 23:08:48;;;;;;;10.10;5.33;;;;;;;;;;5017948;28;20455;-86
2023/09/30 23:11:42;;;;;;;7.90;6.47;;;14.50;50.00;;;;;;5000016;28;20452;-86
2023/09/30 23:14:29;;;;;;;6.20;5.10;;;14.60;86.00;;;;;;4965642;28;20448;-86
2023/09/30 23:17:13;;;;;;;6.07;5.47;;;;;;;;;;5007260;28;20470;-87
2023/09/30 23:19:53;;;;;;;;;;;;;;;;;;;;;
2023/09/30 23:22:45;;;;;;;6.77;5.60;;;;;;;;;;5003441;28;20467;-86
2023/09/30 23:25:34;;;;;;;9.10;5.60;;;14.70;99.90;;;;;;4998472;28;20476;-86
2023/09/30 23:28:21;;;;;;;14.77;5.70;;;;;;;;;;4999962;28;20492;-86
2023/09/30 23:33:49;;;;;;;11.90;6.77;;;;;;;;;;4993268;28;20937;-86
2023/09/30 23:36:29;;;;;;;11.57;5.80;;;;;;;;;;5006807;28;20454;-86
2023/09/30 23:39:28;;;;;;;11.67;6.03;;;14.80;1.00;;;;;;5015259;28;20429;-86
2023/09/30 23:42:11;;;;;;;9.33;5.60;;;;;;;;;;5013005;28;20456;-85
2023/09/30 23:45:02;;;;;;;10.30;7.30;;;;;;;;;;5017031;28;20396;-86
2023/09/30 23:47:49;;;;;;;9.40;6.63;;;;;;;;;;5017534;28;20515;-86
2023/09/30 23:50:16;;;;;;;13.10;6.53;;;;;;;;;;5017387;28;20443;-86
2023/09/30 23:52:44;;;;;;;10.60;6.87;;;;;;;;;;5010884;28;20444;-87
2023/09/30 23:55:13;;;;;;;7.30;5.40;;;14.80;1.00;;;;;;4997201;28;20472;-86
2023/09/30 23:57:42;;;;;;;7.30;6.10;;;14.70;99.90;;;;;;4996274;28;20824;-87
